Time;durP1;ratioP1;P1;durP2;ratioP2;P2;SDS_P1;SDS_P2;PMS_P1;PMS_P2;Temp;Humidity;BMP_temperature;BMP_pressure;BME280_temperature;BME280_humidity;BME280_pressure;Samples;Min_cycle;Max_cycle;Signal;HPM_P1;HPM_P2
2022/03/31 00:00:53;;;;;;;6.10;5.55;;;19.60;48.10;;;;;;5013198;28;20683;-66
2022/03/31 00:03:21;;;;;;;6.82;6.22;;;19.60;48.10;;;;;;5029492;28;20188;-66
2022/03/31 00:05:49;;;;;;;5.75;5.22;;;19.60;48.20;;;;;;5013293;28;20219;-66
2022/03/31 00:08:18;;;;;;;4.95;4.45;;;19.60;48.20;;;;;;5029923;28;20188;-66
2022/03/31 00:10:55;;;;;;;4.53;4.13;;;19.60;48.20;;;;;;5013035;28;20218;-66
2022/03/31 00:13:28;;;;;;;4.38;3.97;;;19.60;48.20;;;;;;5029497;28;20234;-66
2022/03/31 00:15:56;;;;;;;4.03;3.72;;;19.60;48.20;;;;;;5013084;28;20184;-66
2022/03/31 00:18:22;;;;;;;4.32;3.92;;;19.60;48.20;;;;;;5014188;28;20187;-66
2022/03/31 00:20:48;;;;;;;4.30;3.90;;;19.60;48.20;;;;;;5012960;28;20207;-66
2022/03/31 00:23:14;;;;;;;4.53;4.13;;;19.60;48.20;;;;;;5029373;28;20176;-66
2022/03/31 00:25:40;;;;;;;4.22;3.85;;;19.60;48.20;;;;;;5029354;28;20192;-66
2022/03/31 00:28:06;;;;;;;4.72;4.32;;;19.60;48.20;;;;;;5012824;28;20168;-66
2022/03/31 00:30:33;;;;;;;4.93;4.53;;;19.60;48.20;;;;;;5029311;28;20180;-66
2022/03/31 00:32:59;;;;;;;5.68;5.15;;;19.60;48.20;;;;;;5012482;28;20246;-66
2022/03/31 00:35:26;;;;;;;6.20;5.60;;;19.60;48.10;;;;;;5012813;28;20176;-67
2022/03/31 00:37:52;;;;;;;5.45;4.95;;;19.60;48.20;;;;;;5012928;28;20241;-66
2022/03/31 00:40:20;;;;;;;5.80;5.30;;;19.60;48.20;;;;;;5012922;28;20613;-66
2022/03/31 00:42:54;;;;;;;6.93;6.30;;;19.60;48.20;;;;;;5013563;28;20216;-66
2022/03/31 00:45:24;;;;;;;6.60;6.00;;;19.60;48.20;;;;;;5028739;28;20176;-66
2022/03/31 00:47:52;;;;;;;5.25;4.75;;;19.60;48.10;;;;;;5012380;28;20196;-66
2022/03/31 00:50:19;;;;;;;4.43;4.03;;;19.60;48.20;;;;;;5012478;28;20191;-66
2022/03/31 00:52:45;;;;;;;4.28;3.88;;;19.60;48.10;;;;;;5012186;28;20215;-67
2022/03/31 00:55:15;;;;;;;4.35;4.05;;;19.60;48.20;;;;;;5028801;28;20284;-66
2022/03/31 00:57:43;;;;;;;4.00;3.70;;;19.60;48.20;;;;;;5012147;28;20188;-67
2022/03/31 01:00:14;;;;;;;4.25;3.95;;;19.60;48.20;;;;;;5029143;28;20223;-66
2022/03/31 01:02:43;;;;;;;4.30;3.90;;;19.60;48.20;;;;;;5012079;28;20212;-66
2022/03/31 01:05:11;;;;;;;4.25;3.95;;;19.60;48.20;;;;;;5012245;28;20187;-66
2022/03/31 01:07:38;;;;;;;4.25;3.90;;;19.60;48.20;;;;;;5028568;28;20192;-67
2022/03/31 01:10:06;;;;;;;4.43;4.05;;;19.60;48.10;;;;;;5012161;28;20196;-66
2022/03/31 01:12:33;;;;;;;5.28;4.78;;;19.60;48.20;;;;;;5028358;28;20219;-66
2022/03/31 01:15:15;;;;;;;5.82;5.32;;;19.60;48.20;;;;;;4995715;28;20184;-66
2022/03/31 01:17:44;;;;;;;6.63;6.03;;;19.60;48.20;;;;;;5012328;28;20259;-66
2022/03/31 01:20:15;;;;;;;7.03;6.38;;;19.60;48.20;;;;;;5011915;28;20194;-66
2022/03/31 01:22:44;;;;;;;6.65;6.05;;;19.60;48.20;;;;;;5028353;28;20295;-66
2022/03/31 01:25:10;;;;;;;5.68;4.95;;;19.60;48.20;;;;;;5028469;28;20248;-66
2022/03/31 01:27:40;;;;;;;5.40;4.90;;;19.60;48.20;;;;;;5028593;28;20186;-66
2022/03/31 01:30:13;;;;;;;4.57;4.20;;;19.60;48.20;;;;;;5011810;28;20184;-66
2022/03/31 01:32:41;;;;;;;4.68;4.28;;;19.60;48.20;;;;;;5011503;28;20251;-66
2022/03/31 01:35:08;;;;;;;4.55;4.15;;;19.60;48.20;;;;;;5028454;28;20172;-66
2022/03/31 01:37:34;;;;;;;4.30;3.95;;;19.60;48.20;;;;;;5011723;28;20180;-66
2022/03/31 01:40:00;;;;;;;4.50;4.10;;;19.60;48.20;;;;;;5028153;28;20284;-66
2022/03/31 01:42:29;;;;;;;4.53;4.13;;;19.60;48.10;;;;;;5027242;23;20258;-71
2022/03/31 01:44:56;;;;;;;4.32;3.97;;;19.60;48.20;;;;;;5031467;28;20184;-71
2022/03/31 01:47:23;;;;;;;4.32;3.92;;;19.60;48.20;;;;;;5031432;28;20233;-71
2022/03/31 01:49:48;;;;;;;4.78;4.38;;;19.60;48.20;;;;;;5015194;28;20193;-71
2022/03/31 01:52:14;;;;;;;5.55;5.05;;;19.60;48.20;;;;;;5011523;28;20249;-71
2022/03/31 01:54:41;;;;;;;4.97;4.57;;;19.50;48.10;;;;;;5011844;28;20677;-71
2022/03/31 01:57:07;;;;;;;5.68;5.18;;;19.60;48.20;;;;;;5011595;28;20190;-71
2022/03/31 01:59:38;;;;;;;6.13;5.53;;;19.60;48.20;;;;;;5011548;28;20187;-70
2022/03/31 02:02:05;;;;;;;6.07;5.57;;;19.60;48.20;;;;;;5011923;28;20294;-71
2022/03/31 02:04:31;;;;;;;5.85;5.35;;;19.60;48.20;;;;;;5011619;28;20187;-70
2022/03/31 02:06:57;;;;;;;7.35;6.65;;;19.60;48.20;;;;;;5011692;28;20226;-71
2022/03/31 02:09:23;;;;;;;6.80;6.20;;;19.50;48.10;;;;;;5011623;28;20249;-71
2022/03/31 02:11:49;;;;;;;6.40;5.80;;;19.60;48.20;;;;;;5011348;28;20227;-71
2022/03/31 02:14:15;;;;;;;6.40;5.78;;;19.50;48.10;;;;;;5012723;28;20184;-71
2022/03/31 02:16:41;;;;;;;5.60;5.10;;;19.50;48.10;;;;;;5011729;28;20283;-71
2022/03/31 02:19:07;;;;;;;5.32;4.88;;;19.60;48.20;;;;;;5011491;28;20176;-71
2022/03/31 02:21:33;;;;;;;4.10;3.80;;;19.60;48.20;;;;;;5011147;28;20184;-71
2022/03/31 02:23:59;;;;;;;4.20;3.90;;;19.50;48.10;;;;;;5011310;28;20652;-71
2022/03/31 02:26:25;;;;;;;4.05;3.75;;;19.60;48.20;;;;;;5011172;28;20180;-71
2022/03/31 02:28:51;;;;;;;4.78;4.18;;;19.50;48.10;;;;;;5011236;28;20721;-71
2022/03/31 02:31:17;;;;;;;4.68;4.28;;;19.60;48.80;;;;;;4994812;28;20345;-71
2022/03/31 02:33:43;;;;;;;4.50;4.10;;;19.50;48.20;;;;;;5011235;28;20266;-71
2022/03/31 02:36:09;;;;;;;4.32;3.92;;;19.50;48.20;;;;;;5011516;28;20237;-72
2022/03/31 02:38:36;;;;;;;4.30;3.90;;;19.60;48.20;;;;;;5011458;28;20253;-71
2022/03/31 02:41:04;;;;;;;4.13;3.83;;;19.60;48.20;;;;;;5011474;28;20195;-71
2022/03/31 02:43:34;;;;;;;4.20;3.85;;;19.60;48.20;;;;;;5027276;28;20208;-71
2022/03/31 02:46:00;;;;;;;4.68;4.28;;;19.50;48.20;;;;;;5027592;28;20177;-71
2022/03/31 02:48:26;;;;;;;4.50;4.10;;;19.60;48.80;;;;;;4994904;28;20187;-71
2022/03/31 02:50:52;;;;;;;5.32;4.82;;;19.60;48.20;;;;;;5012209;28;20184;-71
2022/03/31 02:56:03;;;;;;;5.10;4.63;;;19.60;48.20;;;;;;5010968;28;20207;-71
2022/03/31 02:58:29;;;;;;;4.90;4.50;;;19.50;48.20;;;;;;5027401;28;20194;-71
2022/03/31 03:00:56;;;;;;;4.70;4.30;;;19.50;48.20;;;;;;5028098;28;20169;-71
2022/03/31 03:03:22;;;;;;;4.28;3.88;;;19.50;48.20;;;;;;5027768;28;20188;-71
2022/03/31 03:05:48;;;;;;;3.92;3.50;;;19.50;48.20;;;;;;4994910;28;20185;-71
2022/03/31 03:08:15;;;;;;;3.75;3.45;;;19.50;48.20;;;;;;5011932;28;20190;-71
2022/03/31 03:10:42;;;;;;;3.60;3.30;;;19.50;48.20;;;;;;5015405;28;20192;-71
2022/03/31 03:13:09;;;;;;;3.72;3.42;;;19.50;48.20;;;;;;5016778;28;20216;-71
2022/03/31 03:15:35;;;;;;;3.88;3.47;;;19.50;48.20;;;;;;5015419;28;20183;-71
2022/03/31 03:18:02;;;;;;;3.35;3.15;;;19.60;48.30;;;;;;5014488;28;20239;-71
2022/03/31 03:20:28;;;;;;;3.47;3.17;;;19.50;48.20;;;;;;5014524;28;20190;-71
2022/03/31 03:22:54;;;;;;;3.60;3.30;;;19.50;48.20;;;;;;5014281;28;20216;-71
2022/03/31 03:25:23;;;;;;;3.78;3.47;;;19.50;48.20;;;;;;5014151;28;20188;-71
2022/03/31 03:27:49;;;;;;;3.30;3.03;;;19.50;48.20;;;;;;5014121;28;20180;-71
2022/03/31 03:30:18;;;;;;;3.85;3.55;;;19.50;48.20;;;;;;5014139;28;20176;-71
2022/03/31 03:32:45;;;;;;;4.72;4.32;;;19.60;48.20;;;;;;5014081;28;20227;-71
2022/03/31 03:35:13;;;;;;;4.63;4.20;;;19.50;48.20;;;;;;5013971;28;20275;-71
2022/03/31 03:37:41;;;;;;;5.32;4.82;;;19.50;48.20;;;;;;5013867;28;20405;-71
2022/03/31 03:40:10;;;;;;;5.20;4.70;;;19.50;48.20;;;;;;5014305;28;20176;-71
2022/03/31 03:42:38;;;;;;;5.43;4.93;;;19.50;48.20;;;;;;5030347;28;20245;-70
2022/03/31 03:45:06;;;;;;;5.43;4.93;;;19.50;48.20;;;;;;5013731;28;20267;-71
2022/03/31 03:47:32;;;;;;;5.18;4.68;;;19.50;48.20;;;;;;5014773;28;20184;-71
2022/03/31 03:49:58;;;;;;;5.18;4.68;;;19.50;48.20;;;;;;5013753;28;20198;-71
2022/03/31 03:52:23;;;;;;;4.22;3.83;;;19.50;48.20;;;;;;5013609;28;20322;-72
2022/03/31 03:54:50;;;;;;;3.70;3.40;;;19.50;48.20;;;;;;5030223;28;20183;-71
2022/03/31 03:57:16;;;;;;;4.22;3.83;;;19.50;48.20;;;;;;4997307;28;20184;-70
2022/03/31 03:59:42;;;;;;;4.00;3.67;;;19.50;48.20;;;;;;5014075;28;20184;-71
2022/03/31 04:02:08;;;;;;;3.65;3.35;;;19.50;48.20;;;;;;5013744;28;20212;-71
2022/03/31 04:04:34;;;;;;;4.00;3.60;;;19.50;48.20;;;;;;5013268;28;20194;-71
2022/03/31 04:07:01;;;;;;;3.75;3.45;;;19.50;48.20;;;;;;5013365;28;20578;-71
2022/03/31 04:09:26;;;;;;;4.15;3.75;;;19.50;48.20;;;;;;5029825;28;20222;-71
2022/03/31 04:11:52;;;;;;;4.20;3.80;;;19.50;48.20;;;;;;5013452;28;20295;-71
2022/03/31 04:14:20;;;;;;;3.85;3.45;;;19.50;48.20;;;;;;5014353;28;20169;-71
2022/03/31 04:16:47;;;;;;;4.32;3.72;;;19.50;48.20;;;;;;5013488;28;20188;-71
2022/03/31 04:19:12;;;;;;;4.40;3.95;;;19.50;48.80;;;;;;5013464;28;20200;-71
2022/03/31 04:21:39;;;;;;;4.28;3.58;;;19.50;48.20;;;;;;5028528;28;20721;-71
2022/03/31 04:24:05;;;;;;;5.47;4.57;;;19.50;48.20;;;;;;5013344;28;20184;-71
2022/03/31 04:26:33;;;;;;;5.93;5.28;;;19.50;48.20;;;;;;5013122;28;20180;-71
2022/03/31 04:29:01;;;;;;;6.68;5.72;;;19.50;48.20;;;;;;5013085;28;20235;-71
2022/03/31 04:31:28;;;;;;;6.70;5.75;;;19.50;48.20;;;;;;5013218;28;20291;-71
2022/03/31 04:33:54;;;;;;;7.03;5.72;;;19.50;48.20;;;;;;5013400;28;20299;-71
2022/03/31 04:36:20;;;;;;;6.55;5.78;;;19.50;48.20;;;;;;5013657;28;20266;-71
2022/03/31 04:38:46;;;;;;;6.25;5.53;;;19.50;48.20;;;;;;5013449;28;20204;-71
2022/03/31 04:41:12;;;;;;;7.63;6.55;;;19.50;48.20;;;;;;5013715;28;20176;-71
2022/03/31 04:43:39;;;;;;;6.38;5.78;;;19.50;48.80;;;;;;5029270;28;20215;-71
2022/03/31 04:46:05;;;;;;;6.50;5.72;;;19.50;48.20;;;;;;5012735;28;20184;-71
2022/03/31 04:48:34;;;;;;;5.30;4.75;;;19.50;48.20;;;;;;5012926;28;20218;-71
2022/03/31 04:50:59;;;;;;;4.70;4.20;;;19.50;48.20;;;;;;5013325;28;20613;-70
2022/03/31 04:53:25;;;;;;;5.03;4.43;;;19.50;48.20;;;;;;5013019;28;20218;-71
2022/03/31 04:55:51;;;;;;;5.20;4.60;;;19.50;48.20;;;;;;5029786;28;20183;-71
2022/03/31 04:58:17;;;;;;;5.30;4.50;;;19.50;48.20;;;;;;5015084;28;20180;-70
2022/03/31 05:00:43;;;;;;;5.38;4.60;;;19.50;48.20;;;;;;5014947;28;20184;-71
2022/03/31 05:03:08;;;;;;;4.93;4.40;;;19.50;48.20;;;;;;4996936;28;20274;-71
2022/03/31 05:05:34;;;;;;;5.22;4.72;;;19.50;48.20;;;;;;4996259;28;20187;-71
2022/03/31 05:08:00;;;;;;;4.90;4.45;;;19.50;48.20;;;;;;5011901;28;20189;-70
2022/03/31 05:10:26;;;;;;;4.50;4.10;;;19.50;48.20;;;;;;4995472;28;20192;-70
2022/03/31 05:12:52;;;;;;;4.82;4.38;;;19.50;48.20;;;;;;4994250;28;20232;-71
2022/03/31 05:15:17;;;;;;;5.13;4.30;;;19.50;48.20;;;;;;4995004;28;20199;-70
2022/03/31 05:17:43;;;;;;;5.55;4.75;;;19.50;48.90;;;;;;4994894;28;20181;-71
2022/03/31 05:20:12;;;;;;;6.25;5.53;;;19.50;48.20;;;;;;4993854;28;20189;-70
2022/03/31 05:22:39;;;;;;;7.38;6.25;;;19.50;48.30;;;;;;4977317;28;20204;-71
2022/03/31 05:25:08;;;;;;;6.25;5.43;;;19.50;48.20;;;;;;4995251;28;20191;-71
2022/03/31 05:27:41;;;;;;;7.25;5.95;;;19.40;48.20;;;;;;4994192;28;20195;-71
2022/03/31 05:30:08;;;;;;;7.28;6.57;;;19.50;48.30;;;;;;4994001;28;20239;-71
2022/03/31 05:32:33;;;;;;;6.45;5.85;;;19.50;48.30;;;;;;4977068;28;20226;-71
2022/03/31 05:34:59;;;;;;;7.07;6.38;;;19.50;48.90;;;;;;5009833;28;20185;-70
2022/03/31 05:37:25;;;;;;;5.85;5.07;;;19.40;48.20;;;;;;5009866;28;20187;-70
2022/03/31 05:39:51;;;;;;;6.82;5.38;;;19.50;48.30;;;;;;4993141;28;20674;-71
2022/03/31 05:42:17;;;;;;;6.50;5.60;;;19.40;48.20;;;;;;4993068;28;20247;-70
2022/03/31 05:44:43;;;;;;;5.53;4.97;;;19.50;48.30;;;;;;4993378;28;20180;-71
2022/03/31 05:47:08;;;;;;;5.22;4.75;;;19.40;48.20;;;;;;5009871;28;20272;-71
2022/03/31 05:49:34;;;;;;;5.60;4.95;;;19.40;48.20;;;;;;4977144;28;20204;-70
2022/03/31 05:52:00;;;;;;;6.20;4.63;;;19.40;48.30;;;;;;4993405;28;20271;-70
2022/03/31 05:54:26;;;;;;;5.93;4.88;;;19.50;48.30;;;;;;5009693;28;20247;-70
2022/03/31 05:56:52;;;;;;;6.28;4.30;;;19.50;48.30;;;;;;4977426;28;20629;-71
2022/03/31 05:59:18;;;;;;;5.30;4.63;;;19.40;48.30;;;;;;4993211;28;20184;-70
2022/03/31 06:01:43;;;;;;;6.18;5.10;;;19.40;48.80;;;;;;4994659;28;20204;-70
2022/03/31 06:04:09;;;;;;;7.00;5.40;;;19.40;48.20;;;;;;4994650;28;20235;-71
2022/03/31 06:06:35;;;;;;;5.68;5.07;;;19.50;48.40;;;;;;5009675;28;20196;-71
2022/03/31 06:09:01;;;;;;;6.60;4.97;;;19.50;48.30;;;;;;5009622;28;20231;-70
2022/03/31 06:11:27;;;;;;;5.97;5.20;;;19.50;48.30;;;;;;4994250;28;20216;-70
2022/03/31 06:13:53;;;;;;;7.07;6.30;;;19.40;48.20;;;;;;4992907;28;20200;-70
2022/03/31 06:16:19;;;;;;;8.80;7.10;;;19.50;48.30;;;;;;4977071;28;20227;-69
2022/03/31 06:18:45;;;;;;;9.63;7.97;;;19.40;48.30;;;;;;4994595;28;20185;-71
2022/03/31 06:21:11;;;;;;;10.25;7.47;;;19.50;48.30;;;;;;4994917;28;20165;-70
2022/03/31 06:23:37;;;;;;;7.93;7.05;;;19.50;48.30;;;;;;4993300;28;20355;-70
2022/03/31 06:26:03;;;;;;;8.48;7.50;;;19.40;48.30;;;;;;5004977;28;20176;-71
2022/03/31 06:28:31;;;;;;;7.20;6.47;;;19.50;48.30;;;;;;4996453;28;20184;-70
2022/03/31 06:30:57;;;;;;;8.32;7.20;;;19.50;48.40;;;;;;5029447;28;20691;-71
2022/03/31 06:33:23;;;;;;;8.40;6.90;;;19.40;48.30;;;;;;5013610;28;20211;-70
2022/03/31 06:35:49;;;;;;;6.50;5.70;;;19.40;48.30;;;;;;5012403;28;20267;-70
2022/03/31 06:38:15;;;;;;;7.25;6.22;;;19.40;48.30;;;;;;5012486;28;20187;-70
2022/03/31 06:41:06;;;;;;;6.35;5.75;;;19.40;48.30;;;;;;5013327;28;20169;-71
2022/03/31 06:43:27;;;;;;;5.80;4.97;;;19.40;48.20;;;;;;5029342;28;20208;-70
2022/03/31 06:45:53;;;;;;;6.07;5.45;;;19.40;48.30;;;;;;5033242;28;20189;-71
2022/03/31 06:48:18;;;;;;;6.15;5.47;;;19.50;48.40;;;;;;5016499;28;20192;-70
2022/03/31 06:50:46;;;;;;;5.93;5.32;;;19.40;48.30;;;;;;4999788;28;20214;-70
2022/03/31 06:53:11;;;;;;;5.57;5.05;;;19.40;48.30;;;;;;4999840;28;20223;-70
2022/03/31 06:55:37;;;;;;;6.68;5.45;;;19.50;48.30;;;;;;5016717;28;20172;-71
2022/03/31 06:58:03;;;;;;;5.93;5.00;;;19.50;48.30;;;;;;4999536;28;20180;-71
2022/03/31 07:00:29;;;;;;;5.75;5.20;;;19.50;48.30;;;;;;5016396;28;20291;-71
2022/03/31 07:02:55;;;;;;;6.50;5.80;;;19.40;48.30;;;;;;5016689;28;20216;-71
2022/03/31 07:05:21;;;;;;;7.35;6.15;;;19.40;48.30;;;;;;5034601;28;20191;-71
2022/03/31 07:07:47;;;;;;;7.38;6.15;;;19.40;48.20;;;;;;5033087;28;20188;-70
2022/03/31 07:10:13;;;;;;;7.78;6.93;;;19.40;48.30;;;;;;5015556;28;20184;-70
2022/03/31 07:12:40;;;;;;;7.53;6.78;;;19.40;48.30;;;;;;5032032;28;20319;-70
2022/03/31 07:15:09;;;;;;;7.90;7.10;;;19.50;48.40;;;;;;5015535;28;20226;-70
2022/03/31 07:17:35;;;;;;;8.00;7.20;;;19.40;48.20;;;;;;5016411;28;20190;-71
2022/03/31 07:20:01;;;;;;;8.50;7.60;;;19.50;48.30;;;;;;4999196;28;20180;-70
2022/03/31 07:22:26;;;;;;;8.35;7.20;;;19.50;48.30;;;;;;5015372;28;20699;-70
2022/03/31 07:24:52;;;;;;;7.93;7.10;;;19.40;48.20;;;;;;5015303;28;20184;-71
2022/03/31 07:27:19;;;;;;;7.43;6.63;;;19.40;48.30;;;;;;5016306;28;20195;-70
2022/03/31 07:29:45;;;;;;;6.60;5.50;;;19.50;48.40;;;;;;5015119;28;20192;-71
2022/03/31 07:32:11;;;;;;;6.72;5.43;;;19.40;48.30;;;;;;5015024;28;20216;-71
2022/03/31 07:34:37;;;;;;;6.45;5.68;;;19.40;48.30;;;;;;5015662;28;20176;-70
2022/03/31 07:37:05;;;;;;;6.55;5.70;;;19.40;48.30;;;;;;5014498;28;20279;-71
2022/03/31 07:39:33;;;;;;;6.47;5.18;;;19.50;48.40;;;;;;5015416;28;20188;-71
2022/03/31 07:41:59;;;;;;;6.10;5.50;;;19.50;48.30;;;;;;5014805;28;20223;-70
2022/03/31 07:47:00;;;;;;;6.25;5.65;;;19.40;48.30;;;;;;5032847;28;20215;-72
2022/03/31 07:49:26;;;;;;;6.55;5.55;;;19.40;48.30;;;;;;5016433;28;20187;-72
2022/03/31 07:51:52;;;;;;;7.20;5.47;;;19.50;48.40;;;;;;5000611;28;20218;-72
2022/03/31 07:54:18;;;;;;;7.00;5.70;;;19.50;48.40;;;;;;5016766;28;20214;-73
2022/03/31 07:56:43;;;;;;;7.32;6.53;;;19.50;48.40;;;;;;5016487;28;20175;-72
2022/03/31 07:59:10;;;;;;;7.35;6.53;;;19.50;48.30;;;;;;5016825;28;20183;-72
2022/03/31 08:01:36;;;;;;;8.55;7.63;;;19.50;48.30;;;;;;5000366;28;20199;-72
2022/03/31 08:04:03;;;;;;;8.02;7.10;;;19.50;48.30;;;;;;5016194;28;20211;-72
2022/03/31 08:06:30;;;;;;;8.60;7.22;;;19.50;48.30;;;;;;5034275;28;20194;-72
2022/03/31 08:08:55;;;;;;;8.20;6.93;;;19.50;48.30;;;;;;5000352;28;20191;-72
2022/03/31 08:11:21;;;;;;;8.43;7.53;;;19.50;48.30;;;;;;5016591;28;20219;-72
2022/03/31 08:13:47;;;;;;;7.75;6.97;;;19.50;48.30;;;;;;5016208;28;20214;-72
2022/03/31 08:16:13;;;;;;;9.23;8.00;;;19.50;48.30;;;;;;5016697;28;20187;-72
2022/03/31 08:18:39;;;;;;;6.85;6.15;;;19.60;48.30;;;;;;5016472;28;20191;-72
2022/03/31 08:21:05;;;;;;;6.90;6.07;;;19.50;48.30;;;;;;5016403;28;20184;-67
2022/03/31 08:23:32;;;;;;;6.78;6.05;;;19.50;48.30;;;;;;5016012;28;20298;-70
2022/03/31 08:25:58;;;;;;;5.63;5.13;;;19.50;48.30;;;;;;5016149;28;20190;-70
2022/03/31 08:28:25;;;;;;;6.22;5.63;;;19.50;48.30;;;;;;5016280;28;20180;-70
2022/03/31 08:30:52;;;;;;;5.57;5.07;;;19.50;48.30;;;;;;5016011;28;20187;-70
2022/03/31 08:33:17;;;;;;;6.55;5.78;;;19.50;48.40;;;;;;5033357;28;20215;-70
2022/03/31 08:35:44;;;;;;;5.53;5.00;;;19.50;48.40;;;;;;5032480;28;20193;-70
2022/03/31 08:38:09;;;;;;;5.82;5.10;;;19.50;48.40;;;;;;4999609;28;20194;-70
2022/03/31 08:40:36;;;;;;;5.53;4.95;;;19.50;48.40;;;;;;5015908;28;20179;-70
2022/03/31 08:43:02;;;;;;;5.65;5.10;;;19.50;48.40;;;;;;5015646;28;20203;-70
2022/03/31 08:45:34;;;;;;;5.20;4.70;;;19.50;48.40;;;;;;5033547;28;20230;-70
2022/03/31 08:48:01;;;;;;;5.57;4.93;;;19.50;48.40;;;;;;4999233;28;20198;-70
2022/03/31 08:50:27;;;;;;;5.60;5.10;;;19.50;48.40;;;;;;5015485;28;20278;-70
2022/03/31 08:52:54;;;;;;;6.07;5.18;;;19.50;48.40;;;;;;5032988;28;20302;-69
2022/03/31 08:55:21;;;;;;;6.00;5.50;;;19.50;48.40;;;;;;4999487;28;20238;-70
2022/03/31 08:57:51;;;;;;;5.82;5.30;;;19.50;48.40;;;;;;5015818;28;20179;-70
2022/03/31 09:00:20;;;;;;;6.18;5.57;;;19.50;48.40;;;;;;5015902;28;20631;-70
2022/03/31 09:03:10;;;;;;;6.25;5.57;;;19.50;48.40;;;;;;5032939;28;20278;-70
2022/03/31 09:05:54;;;;;;;5.38;4.88;;;19.50;48.40;;;;;;4999531;28;20224;-70
2022/03/31 09:08:20;;;;;;;4.55;3.85;;;19.50;48.40;;;;;;5031283;28;20180;-70
2022/03/31 09:10:54;;;;;;;4.38;3.97;;;19.50;48.40;;;;;;5015295;28;20190;-68
2022/03/31 09:13:29;;;;;;;5.13;4.65;;;19.50;48.40;;;;;;5015124;28;20219;-69
2022/03/31 09:16:02;;;;;;;4.60;4.20;;;19.60;48.40;;;;;;4998871;28;20183;-70
2022/03/31 09:18:32;;;;;;;5.18;4.68;;;19.50;48.40;;;;;;4998950;28;20266;-70
2022/03/31 09:21:03;;;;;;;5.63;4.88;;;19.50;48.30;;;;;;4999212;28;20172;-69
2022/03/31 09:23:42;;;;;;;5.85;5.25;;;19.50;48.40;;;;;;5014878;28;20211;-70
2022/03/31 09:26:15;;;;;;;6.97;5.78;;;19.50;48.40;;;;;;5015154;28;20179;-70
2022/03/31 09:28:46;;;;;;;6.28;5.68;;;19.50;48.40;;;;;;4998852;28;20180;-70
2022/03/31 09:31:13;;;;;;;5.47;4.68;;;19.50;48.40;;;;;;4998898;28;20232;-70
2022/03/31 09:33:48;;;;;;;5.15;4.65;;;19.50;48.40;;;;;;4998453;28;20653;-70
2022/03/31 09:36:21;;;;;;;5.10;4.60;;;19.50;48.40;;;;;;4998534;28;20175;-70
2022/03/31 09:39:09;;;;;;;5.05;4.20;;;19.50;48.40;;;;;;4998978;28;20236;-69
2022/03/31 09:41:38;;;;;;;4.85;4.30;;;19.50;49.00;;;;;;5015118;28;20372;-70
2022/03/31 09:44:13;;;;;;;4.88;4.30;;;19.50;48.40;;;;;;4998235;28;20219;-70
2022/03/31 09:46:40;;;;;;;4.88;4.45;;;19.50;48.40;;;;;;5014651;28;20202;-70
2022/03/31 09:49:16;;;;;;;5.95;4.85;;;19.50;48.40;;;;;;4998268;28;20226;-67
2022/03/31 09:51:46;;;;;;;5.63;5.03;;;19.50;48.40;;;;;;5014993;28;20218;-69
2022/03/31 09:54:12;;;;;;;6.15;5.65;;;19.50;48.40;;;;;;4998126;28;20199;-69
2022/03/31 09:56:40;;;;;;;6.25;5.65;;;19.50;48.40;;;;;;4998405;28;20190;-70
2022/03/31 09:59:09;;;;;;;5.85;5.35;;;19.50;48.40;;;;;;4998380;28;20184;-69
2022/03/31 10:01:38;;;;;;;5.07;4.57;;;19.50;49.10;;;;;;4998378;28;20183;-69
2022/03/31 10:04:09;;;;;;;5.18;4.22;;;19.50;48.50;;;;;;5014450;28;20278;-69
2022/03/31 10:06:39;;;;;;;4.38;3.97;;;19.50;48.40;;;;;;4998282;28;20587;-69
2022/03/31 10:09:08;;;;;;;3.90;3.50;;;19.50;48.40;;;;;;4998147;28;20274;-69
2022/03/31 10:11:41;;;;;;;4.75;4.32;;;19.50;48.40;;;;;;5022243;28;20214;-69
2022/03/31 10:14:25;;;;;;;4.35;3.53;;;19.50;48.40;;;;;;5019379;28;20202;-69
2022/03/31 10:17:01;;;;;;;5.35;4.80;;;19.50;48.50;;;;;;5028848;28;20210;-69
2022/03/31 10:19:37;;;;;;;5.65;5.00;;;19.50;48.50;;;;;;5045224;28;20223;-69
2022/03/31 10:25:11;;;;;;;4.50;4.10;;;19.50;48.50;;;;;;5025840;28;20225;-69
2022/03/31 10:27:40;;;;;;;5.07;3.88;;;19.50;48.50;;;;;;5034973;28;20186;-68
2022/03/31 10:30:25;;;;;;;4.05;3.65;;;19.50;48.50;;;;;;5033422;28;20183;-69
2022/03/31 10:32:56;;;;;;;4.38;3.97;;;19.50;48.50;;;;;;5029908;28;20206;-68
2022/03/31 10:35:35;;;;;;;5.22;4.28;;;19.50;48.50;;;;;;5038220;28;20179;-68
2022/03/31 10:38:23;;;;;;;5.15;4.35;;;19.50;48.50;;;;;;5029474;28;20178;-69
2022/03/31 10:41:01;;;;;;;6.55;5.53;;;19.50;48.50;;;;;;5029492;28;20186;-69
2022/03/31 10:43:32;;;;;;;6.75;4.28;;;19.60;48.50;;;;;;5023466;28;20203;-70
2022/03/31 10:46:03;;;;;;;5.15;3.65;;;19.60;48.80;;;;;;5035793;28;20195;-70
2022/03/31 10:48:31;;;;;;;6.00;4.10;;;19.60;48.70;;;;;;5017920;28;20218;-70
2022/03/31 10:51:11;;;;;;;7.40;3.75;;;19.60;48.70;;;;;;5018140;28;20262;-71
2022/03/31 10:53:48;;;;;;;3.78;3.45;;;19.60;48.70;;;;;;5009885;28;20211;-72
2022/03/31 10:56:24;;;;;;;5.78;3.47;;;19.60;48.70;;;;;;4998403;28;20179;-70
2022/03/31 10:58:54;;;;;;;5.60;3.72;;;19.60;48.70;;;;;;4998375;28;20180;-70
2022/03/31 11:01:23;;;;;;;4.63;4.00;;;19.60;48.70;;;;;;4997990;28;20184;-70
2022/03/31 11:03:50;;;;;;;5.05;4.32;;;19.60;48.70;;;;;;4997638;28;20641;-69
2022/03/31 11:06:18;;;;;;;7.13;4.70;;;19.60;48.70;;;;;;4982151;28;20187;-69
2022/03/31 11:08:48;;;;;;;5.57;3.95;;;19.60;48.70;;;;;;4998338;28;20184;-69
2022/03/31 11:11:23;;;;;;;5.10;4.55;;;19.60;48.70;;;;;;4987639;28;20215;-72
2022/03/31 11:13:52;;;;;;;5.28;4.50;;;19.60;48.70;;;;;;5017529;28;20206;-72
2022/03/31 11:16:18;;;;;;;4.45;4.05;;;19.60;48.70;;;;;;5017534;28;20187;-71
2022/03/31 11:18:57;;;;;;;5.00;4.28;;;19.60;48.70;;;;;;5014340;28;20187;-70
2022/03/31 11:21:35;;;;;;;4.15;3.60;;;19.60;48.70;;;;;;4981741;28;20188;-69
2022/03/31 11:24:01;;;;;;;5.10;3.83;;;19.60;48.70;;;;;;5013792;28;20196;-69
2022/03/31 11:26:30;;;;;;;4.18;3.33;;;19.60;48.60;;;;;;4997969;28;20279;-70
2022/03/31 11:28:56;;;;;;;4.20;3.70;;;19.60;48.60;;;;;;5033247;28;20176;-70
2022/03/31 11:31:23;;;;;;;4.55;3.33;;;19.60;48.60;;;;;;5033124;28;20195;-69
2022/03/31 11:33:50;;;;;;;5.53;3.40;;;19.60;48.60;;;;;;5034679;28;20286;-70
2022/03/31 11:36:19;;;;;;;5.10;3.33;;;19.60;48.60;;;;;;5017031;28;20246;-70
2022/03/31 11:38:59;;;;;;;4.53;3.72;;;19.70;48.60;;;;;;5016988;28;20245;-70
2022/03/31 11:41:36;;;;;;;6.43;5.03;;;19.70;48.60;;;;;;5017275;28;20270;-70
2022/03/31 11:44:03;;;;;;;5.45;4.65;;;19.70;48.70;;;;;;5016887;28;20293;-70
2022/03/31 11:46:47;;;;;;;4.93;4.40;;;19.70;48.60;;;;;;5016821;28;20199;-67
2022/03/31 11:49:23;;;;;;;4.35;3.92;;;19.70;48.60;;;;;;5017039;28;20194;-70
2022/03/31 11:51:59;;;;;;;5.18;3.58;;;19.70;48.60;;;;;;5000475;28;20226;-70
2022/03/31 11:54:28;;;;;;;4.05;3.50;;;19.70;48.70;;;;;;5016509;28;20213;-70
2022/03/31 11:57:10;;;;;;;3.97;3.58;;;19.70;48.70;;;;;;5016686;28;20183;-70
2022/03/31 11:59:36;;;;;;;4.40;3.67;;;19.70;48.70;;;;;;5000442;28;20172;-69
2022/03/31 12:02:13;;;;;;;4.78;4.10;;;19.70;48.70;;;;;;5000190;28;20190;-70
2022/03/31 12:04:46;;;;;;;4.72;4.15;;;19.70;48.70;;;;;;5016346;28;20238;-70
2022/03/31 12:07:13;;;;;;;4.93;3.92;;;19.70;48.70;;;;;;5016777;28;20190;-69
2022/03/31 12:09:41;;;;;;;5.28;4.25;;;19.70;48.70;;;;;;5016660;28;20202;-69
2022/03/31 12:12:12;;;;;;;5.00;4.50;;;19.70;48.70;;;;;;5016149;28;20214;-70
2022/03/31 12:14:39;;;;;;;4.60;3.85;;;19.70;48.70;;;;;;5033911;28;20195;-68
2022/03/31 12:17:06;;;;;;;4.85;3.85;;;19.70;48.70;;;;;;5016569;28;20222;-70
2022/03/31 12:19:41;;;;;;;4.25;3.63;;;19.70;48.70;;;;;;5016369;28;20679;-70
2022/03/31 12:22:09;;;;;;;3.78;3.47;;;19.60;48.60;;;;;;5016528;28;20190;-69
2022/03/31 12:24:48;;;;;;;4.53;3.20;;;19.60;48.60;;;;;;5016172;28;20214;-70
2022/03/31 12:27:19;;;;;;;6.05;3.50;;;19.60;48.70;;;;;;5016110;28;20194;-70
2022/03/31 12:29:56;;;;;;;5.63;3.38;;;19.60;48.70;;;;;;4999744;28;20186;-70
2022/03/31 12:32:21;;;;;;;4.35;3.33;;;19.60;48.70;;;;;;5016218;28;20210;-70
2022/03/31 12:35:01;;;;;;;5.10;3.35;;;19.60;48.70;;;;;;5015735;28;20214;-70
2022/03/31 12:37:29;;;;;;;4.60;3.72;;;19.60;48.70;;;;;;5016022;28;20198;-70
2022/03/31 12:39:57;;;;;;;4.13;3.72;;;19.70;48.80;;;;;;4999573;28;20179;-70
2022/03/31 12:42:23;;;;;;;4.55;3.67;;;19.60;48.70;;;;;;5015029;28;20176;-70
2022/03/31 12:44:48;;;;;;;5.57;4.22;;;19.60;48.70;;;;;;5015460;28;20713;-70
2022/03/31 12:47:21;;;;;;;4.60;3.80;;;19.60;48.70;;;;;;5015860;28;20180;-70
2022/03/31 12:49:47;;;;;;;4.65;3.47;;;19.60;48.80;;;;;;5033351;28;20249;-71
2022/03/31 12:52:19;;;;;;;5.05;3.53;;;19.60;48.70;;;;;;5015492;28;20207;-70
2022/03/31 12:54:52;;;;;;;4.13;3.60;;;19.60;49.30;;;;;;4999462;28;20235;-68
2022/03/31 12:57:25;;;;;;;3.47;3.17;;;19.60;48.80;;;;;;4999538;28;20645;-70
2022/03/31 13:00:12;;;;;;;4.22;3.28;;;19.60;48.80;;;;;;5015717;28;20232;-70
2022/03/31 13:02:40;;;;;;;4.35;3.65;;;19.60;48.80;;;;;;5015539;28;20187;-67